Terminal Aerodrome Forecast
Issued by NWS Tuscon, AZ

Home | Current Version | Previous Version | Text Only | Print | Product List | Glossary On
Versions: 1 2 3 4 5 6 7 8 9 10 11 12 13
133
FTUS45 KTWC 221733
TAFDUG
TAF
KDUG 221733Z 2218/2318 24005KT P6SM SKC
     FM222000 25010KT P6SM SKC
     FM222200 27014G22KT P6SM FEW250
     FM230200 29010KT P6SM FEW140 SCT250
     FM230700 22008KT P6SM FEW250=

USA.gov is the U.S. government's official web portal to all federal, state and local government web resources and services.